Terminal Aerodrome Forecast
Issued by NWS

Home | Current Version | Previous Version | Text Only | Print | Product List | Glossary On
Versions: 1 2 3 4 5 6 7 8 9 10 11 12 13 14 15 16 17 18 19 20
000
FTUS43 KSGF 291731
TAFJLN
TAF
KJLN 291731Z 2918/3018 10012G18KT P6SM VCSH SCT025 BKN060 OVC120
     FM292000 10014G20KT P6SM BKN025 OVC060
      TEMPO 2920/2924 -SHRA OVC025
     FM300000 13011KT 6SM -SHRA BKN015 OVC040
      TEMPO 3001/3005 4SM -TSRA OVC015CB
     FM300900 19007KT 5SM BR BKN009 OVC020
     FM301400 21010KT P6SM BKN020 OVC060=

USA.gov is the U.S. government's official web portal to all federal, state and local government web resources and services.